SNK525 RPMZ-RPLL
Flight info
| Callsign | SNK525 |
|---|---|
| Flight time | N/A |
| Altitude | 37000 |
| Route | BURCO1E BURCO W3 IOO/N0457F360 B472 IBAGO IBAGO3R |
| Aircraft | B738/M-SDE2E3FGHIRWXY/LB1 |
Departure
| Time | N/A |
|---|---|
| Airport | Zamboanga International Airport (RPMZ) |
Arrival
| Time | 2026-05-07 13:19 |
|---|---|
| Airport | Ninoy Aquino International Airport (RPLL) |
| Time | Latitude | Longitude | Altitude | Speed | Heading |
|---|---|---|---|---|---|
| 2026-05-07 12:11 | 8.39196 | 122.21838 | 30199 ft | 451 kts | 6° |
| 2026-05-07 12:11 | 8.42155 | 122.22167 | 30400 ft | 453 kts | 6° |
| 2026-05-07 12:11 | 8.45317 | 122.22520 | 30657 ft | 454 kts | 6° |
| 2026-05-07 12:12 | 8.48455 | 122.22870 | 30933 ft | 455 kts | 6° |
| 2026-05-07 12:12 | 8.51549 | 122.23216 | 31232 ft | 454 kts | 6° |
| 2026-05-07 12:12 | 8.54682 | 122.23565 | 31513 ft | 454 kts | 6° |
| 2026-05-07 12:12 | 8.57818 | 122.23914 | 31800 ft | 454 kts | 6° |
| 2026-05-07 12:13 | 8.60949 | 122.24264 | 32097 ft | 453 kts | 6° |
| 2026-05-07 12:13 | 8.62994 | 122.24492 | 32281 ft | 453 kts | 6° |
| 2026-05-07 12:13 | 8.67164 | 122.24958 | 32665 ft | 452 kts | 6° |
| 2026-05-07 12:13 | 8.70266 | 122.25304 | 32942 ft | 451 kts | 6° |
| 2026-05-07 12:14 | 8.73395 | 122.25653 | 33217 ft | 450 kts | 6° |
| 2026-05-07 12:14 | 8.76476 | 122.25997 | 33476 ft | 450 kts | 6° |
| 2026-05-07 12:14 | 8.79603 | 122.26347 | 33740 ft | 449 kts | 6° |
| 2026-05-07 12:14 | 8.82697 | 122.26692 | 34004 ft | 448 kts | 6° |
| 2026-05-07 12:15 | 8.85778 | 122.27036 | 34275 ft | 447 kts | 6° |
| 2026-05-07 12:15 | 8.88875 | 122.27383 | 34533 ft | 446 kts | 6° |
| 2026-05-07 12:15 | 8.91935 | 122.27724 | 34767 ft | 446 kts | 6° |
| 2026-05-07 12:15 | 8.95008 | 122.28068 | 35013 ft | 445 kts | 6° |
| 2026-05-07 12:16 | 8.98054 | 122.28409 | 35253 ft | 444 kts | 6° |
| 2026-05-07 12:16 | 9.01139 | 122.28754 | 35537 ft | 442 kts | 6° |
| 2026-05-07 12:16 | 9.04164 | 122.29092 | 35780 ft | 441 kts | 6° |
| 2026-05-07 12:17 | 9.10251 | 122.29773 | 35830 ft | 438 kts | 7° |
| 2026-05-07 12:17 | 9.16193 | 122.30437 | 35831 ft | 435 kts | 7° |
| 2026-05-07 12:18 | 9.22208 | 122.31110 | 35831 ft | 436 kts | 7° |
| 2026-05-07 12:18 | 9.28230 | 122.31785 | 35831 ft | 436 kts | 7° |
| 2026-05-07 12:19 | 9.34217 | 122.32455 | 35831 ft | 437 kts | 7° |
| 2026-05-07 12:19 | 9.40266 | 122.33134 | 35831 ft | 436 kts | 7° |
| 2026-05-07 12:20 | 9.46285 | 122.33808 | 35831 ft | 436 kts | 7° |
| 2026-05-07 12:20 | 9.52280 | 122.34480 | 35831 ft | 436 kts | 7° |
| 2026-05-07 12:21 | 9.58278 | 122.35153 | 35831 ft | 436 kts | 7° |
| 2026-05-07 12:21 | 9.64268 | 122.35825 | 35831 ft | 436 kts | 7° |
| 2026-05-07 12:22 | 9.70301 | 122.36503 | 35830 ft | 436 kts | 7° |
| 2026-05-07 12:22 | 9.76298 | 122.37175 | 35830 ft | 436 kts | 7° |
| 2026-05-07 12:23 | 9.82297 | 122.37846 | 35831 ft | 436 kts | 7° |
| 2026-05-07 12:23 | 9.88296 | 122.38517 | 35831 ft | 436 kts | 7° |
| 2026-05-07 12:24 | 9.94312 | 122.39191 | 35830 ft | 436 kts | 7° |
| 2026-05-07 12:24 | 10.00327 | 122.39864 | 35831 ft | 436 kts | 7° |
| 2026-05-07 12:25 | 10.06300 | 122.40533 | 35857 ft | 436 kts | 7° |
| 2026-05-07 12:25 | 10.11806 | 122.41151 | 35858 ft | 437 kts | 7° |
| 2026-05-07 12:26 | 10.18513 | 122.41902 | 35858 ft | 436 kts | 7° |
| 2026-05-07 12:26 | 10.24469 | 122.42570 | 35858 ft | 436 kts | 7° |
| 2026-05-07 12:27 | 10.30297 | 122.43224 | 35858 ft | 436 kts | 7° |
| 2026-05-07 12:27 | 10.36227 | 122.43890 | 35858 ft | 436 kts | 7° |
| 2026-05-07 12:28 | 10.42223 | 122.44564 | 35858 ft | 436 kts | 7° |
| 2026-05-07 12:28 | 10.48180 | 122.45233 | 35858 ft | 436 kts | 7° |
| 2026-05-07 12:29 | 10.53973 | 122.45884 | 35858 ft | 436 kts | 7° |
| 2026-05-07 12:29 | 10.60285 | 122.46593 | 35858 ft | 436 kts | 7° |
| 2026-05-07 12:30 | 10.65288 | 122.47155 | 35858 ft | 435 kts | 7° |
| 2026-05-07 12:30 | 10.71220 | 122.47823 | 35858 ft | 436 kts | 7° |
| 2026-05-07 12:31 | 10.77176 | 122.48492 | 35858 ft | 436 kts | 7° |
| 2026-05-07 12:31 | 10.83178 | 122.48679 | 35858 ft | 437 kts | 354° |
| 2026-05-07 12:31 | 10.86153 | 122.48019 | 35859 ft | 439 kts | 342° |
| 2026-05-07 12:32 | 10.89002 | 122.46881 | 35859 ft | 440 kts | 338° |
| 2026-05-07 12:32 | 10.94615 | 122.44424 | 35858 ft | 448 kts | 338° |
| 2026-05-07 12:33 | 11.03171 | 122.40732 | 35857 ft | 449 kts | 336° |
| 2026-05-07 12:33 | 11.08863 | 122.38271 | 35857 ft | 443 kts | 336° |
| 2026-05-07 12:34 | 11.14521 | 122.35825 | 35858 ft | 445 kts | 336° |
| 2026-05-07 12:34 | 11.20182 | 122.33375 | 35858 ft | 446 kts | 336° |
| 2026-05-07 12:35 | 11.25765 | 122.30956 | 35858 ft | 446 kts | 336° |
| 2026-05-07 12:35 | 11.31431 | 122.28502 | 35858 ft | 445 kts | 336° |
| 2026-05-07 12:36 | 11.37098 | 122.26045 | 35858 ft | 445 kts | 336° |
| 2026-05-07 12:36 | 11.42760 | 122.23591 | 35858 ft | 445 kts | 336° |
| 2026-05-07 12:37 | 11.48424 | 122.21133 | 35858 ft | 445 kts | 336° |
| 2026-05-07 12:37 | 11.53889 | 122.18761 | 35858 ft | 445 kts | 336° |
| 2026-05-07 12:38 | 11.58493 | 122.16763 | 35858 ft | 445 kts | 336° |
| 2026-05-07 12:38 | 11.64083 | 122.14335 | 35858 ft | 445 kts | 336° |
| 2026-05-07 12:39 | 11.69310 | 122.12064 | 35858 ft | 445 kts | 336° |
| 2026-05-07 12:39 | 11.75476 | 122.09384 | 35858 ft | 445 kts | 336° |
| 2026-05-07 12:40 | 11.81150 | 122.06916 | 35858 ft | 445 kts | 336° |
| 2026-05-07 12:40 | 11.86834 | 122.04443 | 35858 ft | 445 kts | 336° |
| 2026-05-07 12:41 | 11.92519 | 122.01968 | 35858 ft | 445 kts | 336° |
| 2026-05-07 12:41 | 11.98181 | 121.99503 | 35858 ft | 445 kts | 336° |
| 2026-05-07 12:42 | 12.03847 | 121.97034 | 35858 ft | 445 kts | 336° |
| 2026-05-07 12:42 | 12.09542 | 121.94552 | 35858 ft | 445 kts | 336° |
| 2026-05-07 12:43 | 12.15203 | 121.92083 | 35858 ft | 445 kts | 336° |
| 2026-05-07 12:43 | 12.20504 | 121.89771 | 35858 ft | 445 kts | 336° |
| 2026-05-07 12:44 | 12.25572 | 121.87559 | 35858 ft | 445 kts | 336° |
| 2026-05-07 12:44 | 12.31261 | 121.85075 | 35858 ft | 445 kts | 336° |
| 2026-05-07 12:45 | 12.36909 | 121.82607 | 35858 ft | 445 kts | 336° |
| 2026-05-07 12:45 | 12.42442 | 121.80187 | 35858 ft | 445 kts | 336° |
| 2026-05-07 12:46 | 12.47994 | 121.77756 | 35858 ft | 445 kts | 336° |
| 2026-05-07 12:46 | 12.53502 | 121.75343 | 35858 ft | 445 kts | 336° |
| 2026-05-07 12:47 | 12.59124 | 121.72879 | 35858 ft | 445 kts | 336° |
| 2026-05-07 12:47 | 12.64692 | 121.70438 | 35858 ft | 445 kts | 336° |
| 2026-05-07 12:48 | 12.67412 | 121.69245 | 35746 ft | 447 kts | 336° |
| 2026-05-07 12:48 | 12.70057 | 121.68085 | 35507 ft | 448 kts | 336° |
| 2026-05-07 12:48 | 12.72835 | 121.66866 | 35263 ft | 447 kts | 336° |
| 2026-05-07 12:49 | 12.78691 | 121.64296 | 34744 ft | 441 kts | 336° |
| 2026-05-07 12:49 | 12.81493 | 121.63065 | 34495 ft | 440 kts | 336° |
| 2026-05-07 12:49 | 12.84303 | 121.61832 | 34244 ft | 438 kts | 336° |
| 2026-05-07 12:49 | 12.87084 | 121.60609 | 33994 ft | 437 kts | 336° |
| 2026-05-07 12:50 | 12.89847 | 121.59395 | 33746 ft | 435 kts | 336° |
| 2026-05-07 12:50 | 12.92563 | 121.58202 | 33500 ft | 434 kts | 336° |
| 2026-05-07 12:50 | 12.95326 | 121.56987 | 33249 ft | 432 kts | 336° |
| 2026-05-07 12:50 | 12.98039 | 121.55794 | 33001 ft | 431 kts | 336° |
| 2026-05-07 12:51 | 13.00790 | 121.54584 | 32751 ft | 430 kts | 336° |
| 2026-05-07 12:51 | 13.03499 | 121.53391 | 32503 ft | 430 kts | 336° |
| 2026-05-07 12:51 | 13.06197 | 121.52204 | 32257 ft | 430 kts | 336° |
| 2026-05-07 12:51 | 13.08931 | 121.51001 | 32007 ft | 429 kts | 336° |
| 2026-05-07 12:52 | 13.11405 | 121.49912 | 31781 ft | 429 kts | 336° |
| 2026-05-07 12:52 | 13.14284 | 121.48644 | 31517 ft | 428 kts | 336° |
| 2026-05-07 12:52 | 13.17039 | 121.47431 | 31264 ft | 426 kts | 336° |
| 2026-05-07 12:52 | 13.19735 | 121.46243 | 30986 ft | 423 kts | 336° |
| 2026-05-07 12:53 | 13.22401 | 121.45069 | 30519 ft | 418 kts | 336° |
| 2026-05-07 12:53 | 13.25066 | 121.43894 | 29991 ft | 414 kts | 336° |
| 2026-05-07 12:53 | 13.27681 | 121.42741 | 29457 ft | 411 kts | 336° |
| 2026-05-07 12:53 | 13.30293 | 121.41589 | 28922 ft | 408 kts | 336° |
| 2026-05-07 12:54 | 13.32883 | 121.40447 | 28389 ft | 405 kts | 336° |
| 2026-05-07 12:54 | 13.35440 | 121.39320 | 27861 ft | 402 kts | 336° |
| 2026-05-07 12:54 | 13.37988 | 121.38195 | 27333 ft | 399 kts | 336° |
| 2026-05-07 12:54 | 13.40538 | 121.37070 | 26803 ft | 396 kts | 336° |
| 2026-05-07 12:55 | 13.43049 | 121.35961 | 26281 ft | 394 kts | 336° |
| 2026-05-07 12:55 | 13.45555 | 121.34854 | 25760 ft | 391 kts | 335° |
| 2026-05-07 12:55 | 13.48017 | 121.33767 | 25247 ft | 388 kts | 335° |
| 2026-05-07 12:55 | 13.50496 | 121.32671 | 24728 ft | 385 kts | 335° |
| 2026-05-07 12:56 | 13.52870 | 121.31459 | 24207 ft | 381 kts | 327° |
| 2026-05-07 12:56 | 13.55010 | 121.29932 | 23922 ft | 369 kts | 318° |
| 2026-05-07 12:56 | 13.56819 | 121.28122 | 23404 ft | 366 kts | 309° |
| 2026-05-07 12:56 | 13.58473 | 121.26176 | 22930 ft | 363 kts | 309° |
| 2026-05-07 12:57 | 13.60137 | 121.24226 | 22458 ft | 359 kts | 309° |
| 2026-05-07 12:57 | 13.61774 | 121.22320 | 21999 ft | 356 kts | 309° |
| 2026-05-07 12:57 | 13.63382 | 121.20443 | 21547 ft | 353 kts | 309° |
| 2026-05-07 12:57 | 13.64980 | 121.18577 | 21098 ft | 349 kts | 309° |
| 2026-05-07 12:58 | 13.66567 | 121.16724 | 20650 ft | 346 kts | 309° |
| 2026-05-07 12:58 | 13.68158 | 121.14864 | 20202 ft | 343 kts | 309° |
| 2026-05-07 12:58 | 13.69712 | 121.13046 | 19762 ft | 340 kts | 309° |
| 2026-05-07 12:58 | 13.71259 | 121.11237 | 19325 ft | 337 kts | 309° |
| 2026-05-07 12:59 | 13.72804 | 121.09429 | 18890 ft | 333 kts | 313° |
| 2026-05-07 12:59 | 13.74312 | 121.07674 | 18479 ft | 329 kts | 313° |
| 2026-05-07 12:59 | 13.75819 | 121.05911 | 18055 ft | 325 kts | 312° |
| 2026-05-07 12:59 | 13.77295 | 121.04179 | 17636 ft | 322 kts | 312° |
| 2026-05-07 13:00 | 13.78763 | 121.02457 | 17219 ft | 318 kts | 312° |
| 2026-05-07 13:00 | 13.80211 | 121.00761 | 16807 ft | 315 kts | 312° |
| 2026-05-07 13:00 | 13.81778 | 120.99252 | 16397 ft | 312 kts | 326° |
| 2026-05-07 13:00 | 13.83724 | 120.98273 | 15992 ft | 311 kts | 344° |
| 2026-05-07 13:01 | 13.85821 | 120.97913 | 15598 ft | 311 kts | 353° |
| 2026-05-07 13:01 | 13.87983 | 120.97702 | 15180 ft | 311 kts | 353° |
| 2026-05-07 13:01 | 13.90142 | 120.97475 | 14767 ft | 309 kts | 353° |
| 2026-05-07 13:01 | 13.92247 | 120.97252 | 14365 ft | 307 kts | 353° |
| 2026-05-07 13:02 | 13.94371 | 120.97028 | 13960 ft | 306 kts | 352° |
| 2026-05-07 13:02 | 13.96484 | 120.96804 | 13592 ft | 303 kts | 352° |
| 2026-05-07 13:02 | 13.98540 | 120.96587 | 13348 ft | 300 kts | 352° |
| 2026-05-07 13:02 | 14.00613 | 120.96368 | 13099 ft | 298 kts | 352° |
| 2026-05-07 13:03 | 14.02655 | 120.96153 | 12965 ft | 288 kts | 352° |
| 2026-05-07 13:03 | 14.04674 | 120.95939 | 12810 ft | 299 kts | 352° |
| 2026-05-07 13:03 | 14.06741 | 120.95721 | 12469 ft | 299 kts | 352° |
| 2026-05-07 13:03 | 14.08799 | 120.95504 | 12096 ft | 296 kts | 352° |
| 2026-05-07 13:04 | 14.10771 | 120.95296 | 11723 ft | 293 kts | 352° |
| 2026-05-07 13:04 | 14.12776 | 120.95084 | 11339 ft | 290 kts | 352° |
| 2026-05-07 13:04 | 14.14755 | 120.94875 | 11051 ft | 284 kts | 352° |
| 2026-05-07 13:04 | 14.16692 | 120.94645 | 10895 ft | 273 kts | 347° |
| 2026-05-07 13:05 | 14.18422 | 120.93975 | 10603 ft | 267 kts | 330° |
| 2026-05-07 13:05 | 14.20018 | 120.93006 | 10244 ft | 265 kts | 329° |
| 2026-05-07 13:05 | 14.21594 | 120.92057 | 9924 ft | 262 kts | 330° |
| 2026-05-07 13:05 | 14.23167 | 120.91121 | 9609 ft | 259 kts | 330° |
| 2026-05-07 13:06 | 14.24636 | 120.90232 | 9405 ft | 252 kts | 326° |
| 2026-05-07 13:06 | 14.25838 | 120.88954 | 9330 ft | 239 kts | 299° |
| 2026-05-07 13:06 | 14.26243 | 120.87331 | 9120 ft | 232 kts | 272° |
| 2026-05-07 13:06 | 14.25952 | 120.85712 | 8853 ft | 229 kts | 249° |
| 2026-05-07 13:07 | 14.25215 | 120.84292 | 8625 ft | 222 kts | 242° |
| 2026-05-07 13:07 | 14.24445 | 120.82938 | 8371 ft | 214 kts | 243° |
| 2026-05-07 13:07 | 14.23714 | 120.81631 | 8153 ft | 211 kts | 242° |
| 2026-05-07 13:07 | 14.22977 | 120.80307 | 7949 ft | 210 kts | 243° |
| 2026-05-07 13:08 | 14.22273 | 120.79037 | 7700 ft | 200 kts | 245° |
| 2026-05-07 13:08 | 14.21855 | 120.77724 | 7480 ft | 192 kts | 268° |
| 2026-05-07 13:08 | 14.22023 | 120.76374 | 7280 ft | 194 kts | 294° |
| 2026-05-07 13:08 | 14.22734 | 120.75207 | 7065 ft | 194 kts | 318° |
| 2026-05-07 13:09 | 14.23809 | 120.74426 | 6867 ft | 187 kts | 333° |
| 2026-05-07 13:09 | 14.24939 | 120.73788 | 6659 ft | 185 kts | 332° |
| 2026-05-07 13:09 | 14.26063 | 120.73137 | 6473 ft | 187 kts | 333° |
| 2026-05-07 13:09 | 14.27211 | 120.72472 | 6266 ft | 188 kts | 332° |
| 2026-05-07 13:10 | 14.28327 | 120.71819 | 6059 ft | 186 kts | 333° |
| 2026-05-07 13:10 | 14.29459 | 120.71160 | 5855 ft | 187 kts | 333° |
| 2026-05-07 13:10 | 14.30577 | 120.70511 | 5655 ft | 184 kts | 334° |
| 2026-05-07 13:10 | 14.31764 | 120.70140 | 5459 ft | 181 kts | 358° |
| 2026-05-07 13:11 | 14.32941 | 120.70441 | 5271 ft | 182 kts | 34° |
| 2026-05-07 13:11 | 14.33759 | 120.71420 | 5097 ft | 183 kts | 57° |
| 2026-05-07 13:11 | 14.34447 | 120.72546 | 4854 ft | 183 kts | 57° |
| 2026-05-07 13:11 | 14.35095 | 120.73662 | 4644 ft | 179 kts | 59° |
| 2026-05-07 13:12 | 14.35718 | 120.74755 | 4451 ft | 179 kts | 59° |
| 2026-05-07 13:12 | 14.36352 | 120.75884 | 4251 ft | 180 kts | 60° |
| 2026-05-07 13:12 | 14.36977 | 120.76998 | 4053 ft | 180 kts | 59° |
| 2026-05-07 13:12 | 14.37596 | 120.78111 | 3853 ft | 178 kts | 60° |
| 2026-05-07 13:13 | 14.38208 | 120.79210 | 3658 ft | 178 kts | 59° |
| 2026-05-07 13:13 | 14.38827 | 120.80318 | 3460 ft | 178 kts | 60° |
| 2026-05-07 13:13 | 14.39446 | 120.81433 | 3259 ft | 178 kts | 59° |
| 2026-05-07 13:13 | 14.40056 | 120.82525 | 3061 ft | 176 kts | 59° |
| 2026-05-07 13:14 | 14.40655 | 120.83601 | 3005 ft | 167 kts | 60° |
| 2026-05-07 13:14 | 14.41226 | 120.84630 | 2996 ft | 165 kts | 59° |
| 2026-05-07 13:14 | 14.41800 | 120.85661 | 2992 ft | 165 kts | 60° |
| 2026-05-07 13:14 | 14.42350 | 120.86646 | 2977 ft | 155 kts | 61° |
| 2026-05-07 13:15 | 14.42894 | 120.87624 | 2870 ft | 156 kts | 59° |
| 2026-05-07 13:15 | 14.43426 | 120.88581 | 2625 ft | 151 kts | 62° |
| 2026-05-07 13:15 | 14.43933 | 120.89487 | 2437 ft | 143 kts | 60° |
| 2026-05-07 13:15 | 14.44431 | 120.90385 | 2260 ft | 147 kts | 59° |
| 2026-05-07 13:16 | 14.44945 | 120.91311 | 2057 ft | 149 kts | 61° |
| 2026-05-07 13:16 | 14.45463 | 120.92239 | 1834 ft | 147 kts | 59° |
| 2026-05-07 13:16 | 14.45971 | 120.93154 | 1649 ft | 149 kts | 60° |
| 2026-05-07 13:16 | 14.46489 | 120.94089 | 1451 ft | 153 kts | 62° |
| 2026-05-07 13:17 | 14.47016 | 120.95051 | 1251 ft | 151 kts | 62° |
| 2026-05-07 13:17 | 14.47556 | 120.95989 | 1027 ft | 152 kts | 62° |
| 2026-05-07 13:17 | 14.48086 | 120.96941 | 806 ft | 154 kts | 62° |
| 2026-05-07 13:17 | 14.48614 | 120.97900 | 592 ft | 156 kts | 63° |
| 2026-05-07 13:18 | 14.49143 | 120.98873 | 387 ft | 154 kts | 62° |
| 2026-05-07 13:18 | 14.49682 | 120.99824 | 174 ft | 150 kts | 62° |
| 2026-05-07 13:18 | 14.50171 | 121.00714 | 85 ft | 130 kts | 60° |
| 2026-05-07 13:18 | 14.50510 | 121.01320 | 84 ft | 73 kts | 61° |
| 2026-05-07 13:19 | 14.50699 | 121.01646 | 84 ft | 32 kts | 50° |
| 2026-05-07 13:19 | 14.50822 | 121.01765 | 84 ft | 18 kts | 38° |
| 2026-05-07 13:19 | 14.50899 | 121.01774 | 84 ft | 8 kts | 305° |
| 2026-05-07 13:19 | 14.50892 | 121.01722 | 84 ft | 7 kts | 243° |
| 2026-05-07 13:20 | 14.50864 | 121.01670 | 84 ft | 10 kts | 240° |
| 2026-05-07 13:20 | 14.50822 | 121.01594 | 84 ft | 14 kts | 240° |
| 2026-05-07 13:20 | 14.50788 | 121.01533 | 84 ft | 16 kts | 240° |
| 2026-05-07 13:20 | 14.50747 | 121.01458 | 84 ft | 19 kts | 240° |
| 2026-05-07 13:21 | 14.50724 | 121.01417 | 84 ft | 19 kts | 240° |
| 2026-05-07 13:21 | 14.50594 | 121.01184 | 84 ft | 15 kts | 239° |
| 2026-05-07 13:21 | 14.50490 | 121.00996 | 84 ft | 13 kts | 240° |
| 2026-05-07 13:22 | 14.50450 | 121.00924 | 84 ft | 9 kts | 240° |
| 2026-05-07 13:22 | 14.50430 | 121.00865 | 84 ft | 8 kts | 285° |
| 2026-05-07 13:22 | 14.50477 | 121.00835 | 84 ft | 8 kts | 350° |
| 2026-05-07 13:22 | 14.50535 | 121.00811 | 84 ft | 9 kts | 328° |
| 2026-05-07 13:23 | 14.50589 | 121.00778 | 84 ft | 8 kts | 330° |
| 2026-05-07 13:23 | 14.50632 | 121.00744 | 84 ft | 7 kts | 301° |
| 2026-05-07 13:23 | 14.50652 | 121.00698 | 84 ft | 6 kts | 295° |
| 2026-05-07 13:23 | 14.50669 | 121.00659 | 84 ft | 5 kts | 289° |
| 2026-05-07 13:24 | 14.50673 | 121.00623 | 84 ft | 5 kts | 267° |
| 2026-05-07 13:24 | 14.50666 | 121.00586 | 84 ft | 5 kts | 250° |
| 2026-05-07 13:24 | 14.50641 | 121.00549 | 84 ft | 6 kts | 223° |
| 2026-05-07 13:24 | 14.50614 | 121.00534 | 84 ft | 4 kts | 200° |
| 2026-05-07 13:25 | 14.50596 | 121.00526 | 84 ft | 1 kts | 203° |
| 2026-05-07 13:25 | 14.50593 | 121.00525 | 84 ft | 0 kts | 203° |